sensor_id;sensor_type;location;lat;lon;timestamp;P1;durP1;ratioP1;P2;durP2;ratioP2
7217;SDS011;3650;53.580;10.094;2023-07-09T00:01:10;2.30;;;2.20;;
7217;SDS011;3650;53.580;10.094;2023-07-09T00:03:42;3.30;;;3.20;;
7217;SDS011;3650;53.580;10.094;2023-07-09T00:06:09;6.13;;;2.80;;
7217;SDS011;3650;53.580;10.094;2023-07-09T00:08:37;3.33;;;2.70;;
7217;SDS011;3650;53.580;10.094;2023-07-09T00:11:09;2.93;;;2.83;;
7217;SDS011;3650;53.580;10.094;2023-07-09T00:13:36;4.07;;;3.00;;
7217;SDS011;3650;53.580;10.094;2023-07-09T00:16:03;3.30;;;3.10;;
7217;SDS011;3650;53.580;10.094;2023-07-09T00:18:39;3.43;;;3.10;;
7217;SDS011;3650;53.580;10.094;2023-07-09T00:21:06;7.17;;;2.70;;
7217;SDS011;3650;53.580;10.094;2023-07-09T00:23:33;2.80;;;2.60;;
7217;SDS011;3650;53.580;10.094;2023-07-09T00:26:00;2.93;;;2.47;;
7217;SDS011;3650;53.580;10.094;2023-07-09T00:28:28;2.60;;;2.50;;
7217;SDS011;3650;53.580;10.094;2023-07-09T00:30:56;2.50;;;2.30;;
7217;SDS011;3650;53.580;10.094;2023-07-09T00:33:23;6.43;;;2.53;;
7217;SDS011;3650;53.580;10.094;2023-07-09T00:35:58;3.03;;;2.70;;
7217;SDS011;3650;53.580;10.094;2023-07-09T00:38:26;5.53;;;2.93;;
7217;SDS011;3650;53.580;10.094;2023-07-09T00:41:00;4.20;;;3.13;;
7217;SDS011;3650;53.580;10.094;2023-07-09T00:43:29;3.00;;;2.80;;
7217;SDS011;3650;53.580;10.094;2023-07-09T00:46:11;9.23;;;3.07;;
7217;SDS011;3650;53.580;10.094;2023-07-09T00:48:43;5.57;;;2.53;;
7217;SDS011;3650;53.580;10.094;2023-07-09T00:51:15;2.80;;;2.70;;
7217;SDS011;3650;53.580;10.094;2023-07-09T00:53:45;6.83;;;2.80;;
7217;SDS011;3650;53.580;10.094;2023-07-09T00:56:16;2.87;;;2.77;;
7217;SDS011;3650;53.580;10.094;2023-07-09T00:58:53;3.13;;;2.90;;
7217;SDS011;3650;53.580;10.094;2023-07-09T01:01:22;5.47;;;3.10;;
7217;SDS011;3650;53.580;10.094;2023-07-09T01:03:50;3.40;;;3.10;;
7217;SDS011;3650;53.580;10.094;2023-07-09T01:06:23;3.03;;;2.87;;
7217;SDS011;3650;53.580;10.094;2023-07-09T01:08:55;2.73;;;2.53;;
7217;SDS011;3650;53.580;10.094;2023-07-09T01:11:22;2.93;;;2.73;;
7217;SDS011;3650;53.580;10.094;2023-07-09T01:13:49;3.50;;;2.87;;
7217;SDS011;3650;53.580;10.094;2023-07-09T01:16:19;3.03;;;2.70;;
7217;SDS011;3650;53.580;10.094;2023-07-09T01:18:51;3.00;;;2.83;;
7217;SDS011;3650;53.580;10.094;2023-07-09T01:21:19;2.60;;;2.50;;
7217;SDS011;3650;53.580;10.094;2023-07-09T01:23:46;2.80;;;2.67;;
7217;SDS011;3650;53.580;10.094;2023-07-09T01:26:17;4.60;;;2.77;;
7217;SDS011;3650;53.580;10.094;2023-07-09T01:28:49;2.80;;;2.70;;
7217;SDS011;3650;53.580;10.094;2023-07-09T01:31:16;2.83;;;2.63;;
7217;SDS011;3650;53.580;10.094;2023-07-09T01:33:44;3.07;;;2.83;;
7217;SDS011;3650;53.580;10.094;2023-07-09T01:36:12;2.87;;;2.47;;
7217;SDS011;3650;53.580;10.094;2023-07-09T01:38:42;8.00;;;2.83;;
7217;SDS011;3650;53.580;10.094;2023-07-09T01:41:10;3.77;;;3.00;;
7217;SDS011;3650;53.580;10.094;2023-07-09T01:43:38;3.50;;;2.57;;
7217;SDS011;3650;53.580;10.094;2023-07-09T01:46:06;5.07;;;2.57;;
7217;SDS011;3650;53.580;10.094;2023-07-09T01:48:33;2.70;;;2.60;;
7217;SDS011;3650;53.580;10.094;2023-07-09T01:51:06;3.43;;;2.50;;
7217;SDS011;3650;53.580;10.094;2023-07-09T01:53:34;3.30;;;2.60;;
7217;SDS011;3650;53.580;10.094;2023-07-09T01:56:06;2.87;;;2.73;;
7217;SDS011;3650;53.580;10.094;2023-07-09T01:58:33;2.90;;;2.70;;
7217;SDS011;3650;53.580;10.094;2023-07-09T02:01:01;8.53;;;2.97;;
7217;SDS011;3650;53.580;10.094;2023-07-09T02:03:28;4.87;;;2.63;;
7217;SDS011;3650;53.580;10.094;2023-07-09T02:05:55;2.53;;;2.33;;
7217;SDS011;3650;53.580;10.094;2023-07-09T02:08:24;4.03;;;2.90;;
7217;SDS011;3650;53.580;10.094;2023-07-09T02:10:53;3.07;;;2.97;;
7217;SDS011;3650;53.580;10.094;2023-07-09T02:13:21;5.13;;;3.00;;
7217;SDS011;3650;53.580;10.094;2023-07-09T02:15:48;4.90;;;2.80;;
7217;SDS011;3650;53.580;10.094;2023-07-09T02:18:15;5.73;;;2.80;;
7217;SDS011;3650;53.580;10.094;2023-07-09T02:20:42;5.77;;;3.30;;
7217;SDS011;3650;53.580;10.094;2023-07-09T02:23:11;2.97;;;2.77;;
7217;SDS011;3650;53.580;10.094;2023-07-09T02:25:39;4.03;;;2.50;;
7217;SDS011;3650;53.580;10.094;2023-07-09T02:28:06;7.90;;;2.63;;
7217;SDS011;3650;53.580;10.094;2023-07-09T02:30:35;4.80;;;2.77;;
7217;SDS011;3650;53.580;10.094;2023-07-09T02:33:01;2.60;;;2.50;;
7217;SDS011;3650;53.580;10.094;2023-07-09T02:35:29;2.83;;;2.60;;
7217;SDS011;3650;53.580;10.094;2023-07-09T02:37:56;2.87;;;2.67;;
7217;SDS011;3650;53.580;10.094;2023-07-09T02:40:23;3.77;;;2.93;;
7217;SDS011;3650;53.580;10.094;2023-07-09T02:42:50;2.80;;;2.63;;
7217;SDS011;3650;53.580;10.094;2023-07-09T02:45:17;3.13;;;2.80;;
7217;SDS011;3650;53.580;10.094;2023-07-09T02:47:46;8.43;;;2.97;;
7217;SDS011;3650;53.580;10.094;2023-07-09T02:50:14;3.63;;;3.13;;
7217;SDS011;3650;53.580;10.094;2023-07-09T02:52:41;4.10;;;2.67;;
7217;SDS011;3650;53.580;10.094;2023-07-09T02:55:08;3.40;;;3.20;;
7217;SDS011;3650;53.580;10.094;2023-07-09T02:57:35;3.87;;;3.00;;
7217;SDS011;3650;53.580;10.094;2023-07-09T03:00:02;2.90;;;2.80;;
7217;SDS011;3650;53.580;10.094;2023-07-09T03:02:31;4.13;;;3.50;;
7217;SDS011;3650;53.580;10.094;2023-07-09T03:04:59;3.00;;;2.80;;
7217;SDS011;3650;53.580;10.094;2023-07-09T03:07:26;4.93;;;3.13;;
7217;SDS011;3650;53.580;10.094;2023-07-09T03:09:53;2.70;;;2.60;;
7217;SDS011;3650;53.580;10.094;2023-07-09T03:12:20;4.63;;;3.23;;
7217;SDS011;3650;53.580;10.094;2023-07-09T03:14:47;2.90;;;2.80;;
7217;SDS011;3650;53.580;10.094;2023-07-09T03:17:15;2.97;;;2.77;;
7217;SDS011;3650;53.580;10.094;2023-07-09T03:19:42;3.27;;;3.07;;
7217;SDS011;3650;53.580;10.094;2023-07-09T03:22:10;3.07;;;2.87;;
7217;SDS011;3650;53.580;10.094;2023-07-09T03:24:37;3.20;;;3.00;;
7217;SDS011;3650;53.580;10.094;2023-07-09T03:27:04;3.20;;;2.90;;
7217;SDS011;3650;53.580;10.094;2023-07-09T03:29:32;3.17;;;2.83;;
7217;SDS011;3650;53.580;10.094;2023-07-09T03:31:59;3.93;;;2.93;;
7217;SDS011;3650;53.580;10.094;2023-07-09T03:34:25;8.63;;;2.70;;
7217;SDS011;3650;53.580;10.094;2023-07-09T03:36:52;3.20;;;2.93;;
7217;SDS011;3650;53.580;10.094;2023-07-09T03:39:20;2.60;;;2.40;;
7217;SDS011;3650;53.580;10.094;2023-07-09T03:41:48;5.63;;;2.83;;
7217;SDS011;3650;53.580;10.094;2023-07-09T03:44:15;4.20;;;2.90;;
7217;SDS011;3650;53.580;10.094;2023-07-09T03:46:41;4.70;;;3.23;;
7217;SDS011;3650;53.580;10.094;2023-07-09T03:49:09;3.60;;;3.30;;
7217;SDS011;3650;53.580;10.094;2023-07-09T03:51:37;4.30;;;2.93;;
7217;SDS011;3650;53.580;10.094;2023-07-09T03:54:04;3.80;;;2.83;;
7217;SDS011;3650;53.580;10.094;2023-07-09T03:56:32;4.87;;;2.87;;
7217;SDS011;3650;53.580;10.094;2023-07-09T03:58:59;3.50;;;3.30;;
7217;SDS011;3650;53.580;10.094;2023-07-09T04:01:26;5.53;;;3.17;;
7217;SDS011;3650;53.580;10.094;2023-07-09T04:03:52;3.20;;;3.10;;
7217;SDS011;3650;53.580;10.094;2023-07-09T04:06:19;3.13;;;3.03;;
7217;SDS011;3650;53.580;10.094;2023-07-09T04:08:46;3.40;;;3.20;;
7217;SDS011;3650;53.580;10.094;2023-07-09T04:11:13;4.07;;;2.70;;
7217;SDS011;3650;53.580;10.094;2023-07-09T04:13:41;8.30;;;3.63;;
7217;SDS011;3650;53.580;10.094;2023-07-09T04:16:08;3.77;;;3.47;;
7217;SDS011;3650;53.580;10.094;2023-07-09T04:18:37;3.17;;;2.73;;
7217;SDS011;3650;53.580;10.094;2023-07-09T04:21:03;3.80;;;3.10;;
7217;SDS011;3650;53.580;10.094;2023-07-09T04:23:30;3.67;;;3.37;;
7217;SDS011;3650;53.580;10.094;2023-07-09T04:25:57;3.00;;;2.80;;
7217;SDS011;3650;53.580;10.094;2023-07-09T04:28:28;4.40;;;3.33;;
7217;SDS011;3650;53.580;10.094;2023-07-09T04:30:57;3.27;;;3.17;;
7217;SDS011;3650;53.580;10.094;2023-07-09T04:33:24;2.57;;;2.47;;
7217;SDS011;3650;53.580;10.094;2023-07-09T04:35:52;5.63;;;3.00;;
7217;SDS011;3650;53.580;10.094;2023-07-09T04:38:18;3.30;;;3.20;;
7217;SDS011;3650;53.580;10.094;2023-07-09T04:40:46;3.07;;;2.83;;
7217;SDS011;3650;53.580;10.094;2023-07-09T04:43:13;3.23;;;3.13;;
7217;SDS011;3650;53.580;10.094;2023-07-09T04:45:40;3.37;;;3.17;;
7217;SDS011;3650;53.580;10.094;2023-07-09T04:48:09;3.40;;;3.10;;
7217;SDS011;3650;53.580;10.094;2023-07-09T04:50:35;6.50;;;3.20;;
7217;SDS011;3650;53.580;10.094;2023-07-09T04:53:05;3.00;;;2.80;;
7217;SDS011;3650;53.580;10.094;2023-07-09T04:55:32;3.40;;;3.20;;
7217;SDS011;3650;53.580;10.094;2023-07-09T04:57:59;5.40;;;3.80;;
7217;SDS011;3650;53.580;10.094;2023-07-09T05:00:27;4.00;;;3.70;;
7217;SDS011;3650;53.580;10.094;2023-07-09T05:02:53;5.80;;;3.67;;
7217;SDS011;3650;53.580;10.094;2023-07-09T05:05:22;3.40;;;3.10;;
7217;SDS011;3650;53.580;10.094;2023-07-09T05:07:50;3.80;;;3.60;;
7217;SDS011;3650;53.580;10.094;2023-07-09T05:10:17;4.03;;;3.77;;
7217;SDS011;3650;53.580;10.094;2023-07-09T05:12:47;3.50;;;3.30;;
7217;SDS011;3650;53.580;10.094;2023-07-09T05:15:16;3.70;;;3.50;;
7217;SDS011;3650;53.580;10.094;2023-07-09T05:17:44;4.53;;;2.73;;
7217;SDS011;3650;53.580;10.094;2023-07-09T05:20:12;5.47;;;3.20;;
7217;SDS011;3650;53.580;10.094;2023-07-09T05:22:40;3.70;;;3.33;;
7217;SDS011;3650;53.580;10.094;2023-07-09T05:25:07;3.20;;;3.10;;
7217;SDS011;3650;53.580;10.094;2023-07-09T05:27:34;3.47;;;3.27;;
7217;SDS011;3650;53.580;10.094;2023-07-09T05:30:02;4.40;;;2.67;;
7217;SDS011;3650;53.580;10.094;2023-07-09T05:32:29;3.30;;;3.10;;
7217;SDS011;3650;53.580;10.094;2023-07-09T05:34:57;3.33;;;3.13;;
7217;SDS011;3650;53.580;10.094;2023-07-09T05:37:24;3.23;;;3.03;;
7217;SDS011;3650;53.580;10.094;2023-07-09T05:39:52;3.77;;;3.47;;
7217;SDS011;3650;53.580;10.094;2023-07-09T05:42:19;2.93;;;2.80;;
7217;SDS011;3650;53.580;10.094;2023-07-09T05:44:46;3.90;;;3.50;;
7217;SDS011;3650;53.580;10.094;2023-07-09T05:47:13;3.27;;;2.90;;
7217;SDS011;3650;53.580;10.094;2023-07-09T05:49:40;3.00;;;2.90;;
7217;SDS011;3650;53.580;10.094;2023-07-09T05:52:07;3.33;;;3.13;;
7217;SDS011;3650;53.580;10.094;2023-07-09T05:54:34;3.20;;;3.00;;
7217;SDS011;3650;53.580;10.094;2023-07-09T05:57:03;3.43;;;2.93;;
7217;SDS011;3650;53.580;10.094;2023-07-09T05:59:30;4.37;;;3.67;;
7217;SDS011;3650;53.580;10.094;2023-07-09T06:01:57;2.90;;;2.80;;
7217;SDS011;3650;53.580;10.094;2023-07-09T06:04:25;5.97;;;4.00;;
7217;SDS011;3650;53.580;10.094;2023-07-09T06:06:53;12.90;;;9.30;;
7217;SDS011;3650;53.580;10.094;2023-07-09T06:09:20;4.77;;;4.30;;
7217;SDS011;3650;53.580;10.094;2023-07-09T06:11:47;3.77;;;3.57;;
7217;SDS011;3650;53.580;10.094;2023-07-09T06:14:15;4.07;;;3.80;;
7217;SDS011;3650;53.580;10.094;2023-07-09T06:16:43;4.03;;;3.83;;
7217;SDS011;3650;53.580;10.094;2023-07-09T06:19:12;4.77;;;3.63;;
7217;SDS011;3650;53.580;10.094;2023-07-09T06:21:39;4.90;;;3.20;;
7217;SDS011;3650;53.580;10.094;2023-07-09T06:24:07;3.20;;;3.00;;
7217;SDS011;3650;53.580;10.094;2023-07-09T06:26:35;3.43;;;3.33;;
7217;SDS011;3650;53.580;10.094;2023-07-09T06:29:02;3.57;;;3.30;;
7217;SDS011;3650;53.580;10.094;2023-07-09T06:31:30;3.87;;;3.57;;
7217;SDS011;3650;53.580;10.094;2023-07-09T06:33:57;4.47;;;4.03;;
7217;SDS011;3650;53.580;10.094;2023-07-09T06:36:25;4.07;;;3.37;;
7217;SDS011;3650;53.580;10.094;2023-07-09T06:38:52;6.00;;;4.30;;
7217;SDS011;3650;53.580;10.094;2023-07-09T06:41:20;3.33;;;3.00;;
7217;SDS011;3650;53.580;10.094;2023-07-09T06:43:47;5.33;;;3.50;;
7217;SDS011;3650;53.580;10.094;2023-07-09T06:46:14;4.33;;;3.80;;
7217;SDS011;3650;53.580;10.094;2023-07-09T06:48:43;3.70;;;3.50;;
7217;SDS011;3650;53.580;10.094;2023-07-09T06:51:10;4.40;;;4.07;;
7217;SDS011;3650;53.580;10.094;2023-07-09T06:53:37;3.80;;;3.60;;
7217;SDS011;3650;53.580;10.094;2023-07-09T06:56:04;5.83;;;3.87;;
7217;SDS011;3650;53.580;10.094;2023-07-09T06:58:32;3.67;;;3.47;;
7217;SDS011;3650;53.580;10.094;2023-07-09T07:01:00;3.90;;;3.57;;
7217;SDS011;3650;53.580;10.094;2023-07-09T07:03:28;4.30;;;3.23;;
7217;SDS011;3650;53.580;10.094;2023-07-09T07:05:58;3.77;;;3.47;;
7217;SDS011;3650;53.580;10.094;2023-07-09T07:08:25;5.93;;;3.67;;
7217;SDS011;3650;53.580;10.094;2023-07-09T07:10:54;4.70;;;4.40;;
7217;SDS011;3650;53.580;10.094;2023-07-09T07:13:27;3.87;;;3.63;;
7217;SDS011;3650;53.580;10.094;2023-07-09T07:15:53;6.80;;;3.70;;
7217;SDS011;3650;53.580;10.094;2023-07-09T07:18:20;5.43;;;4.07;;
7217;SDS011;3650;53.580;10.094;2023-07-09T07:20:48;4.30;;;4.00;;
7217;SDS011;3650;53.580;10.094;2023-07-09T07:23:17;3.80;;;3.60;;
7217;SDS011;3650;53.580;10.094;2023-07-09T07:25:44;4.20;;;3.80;;
7217;SDS011;3650;53.580;10.094;2023-07-09T07:28:12;4.37;;;4.03;;
7217;SDS011;3650;53.580;10.094;2023-07-09T07:30:39;4.03;;;3.83;;
7217;SDS011;3650;53.580;10.094;2023-07-09T07:33:05;5.47;;;4.93;;
7217;SDS011;3650;53.580;10.094;2023-07-09T07:35:32;11.03;;;8.10;;
7217;SDS011;3650;53.580;10.094;2023-07-09T07:38:01;6.13;;;5.57;;
7217;SDS011;3650;53.580;10.094;2023-07-09T07:40:30;5.60;;;5.17;;
7217;SDS011;3650;53.580;10.094;2023-07-09T07:42:56;4.23;;;3.80;;
7217;SDS011;3650;53.580;10.094;2023-07-09T07:45:23;9.03;;;4.40;;
7217;SDS011;3650;53.580;10.094;2023-07-09T07:47:50;3.93;;;3.40;;
7217;SDS011;3650;53.580;10.094;2023-07-09T07:50:17;4.00;;;3.60;;
7217;SDS011;3650;53.580;10.094;2023-07-09T07:52:45;6.07;;;3.40;;
7217;SDS011;3650;53.580;10.094;2023-07-09T07:55:12;4.40;;;4.20;;
7217;SDS011;3650;53.580;10.094;2023-07-09T07:57:41;4.20;;;3.93;;
7217;SDS011;3650;53.580;10.094;2023-07-09T08:00:08;4.87;;;4.20;;
7217;SDS011;3650;53.580;10.094;2023-07-09T08:02:36;4.20;;;4.00;;
7217;SDS011;3650;53.580;10.094;2023-07-09T08:05:03;9.50;;;4.90;;
7217;SDS011;3650;53.580;10.094;2023-07-09T08:07:31;4.27;;;3.87;;
7217;SDS011;3650;53.580;10.094;2023-07-09T08:09:58;4.07;;;3.60;;
7217;SDS011;3650;53.580;10.094;2023-07-09T08:12:25;4.20;;;3.87;;
7217;SDS011;3650;53.580;10.094;2023-07-09T08:14:53;4.47;;;4.07;;
7217;SDS011;3650;53.580;10.094;2023-07-09T08:17:20;4.33;;;4.03;;
7217;SDS011;3650;53.580;10.094;2023-07-09T08:19:47;6.03;;;4.10;;
7217;SDS011;3650;53.580;10.094;2023-07-09T08:22:16;4.10;;;3.90;;
7217;SDS011;3650;53.580;10.094;2023-07-09T08:24:45;6.33;;;4.00;;
7217;SDS011;3650;53.580;10.094;2023-07-09T08:27:13;4.17;;;3.83;;
7217;SDS011;3650;53.580;10.094;2023-07-09T08:29:40;5.63;;;4.90;;
7217;SDS011;3650;53.580;10.094;2023-07-09T08:32:09;4.30;;;4.00;;
7217;SDS011;3650;53.580;10.094;2023-07-09T08:34:37;4.93;;;4.60;;
7217;SDS011;3650;53.580;10.094;2023-07-09T08:37:05;6.37;;;4.60;;
7217;SDS011;3650;53.580;10.094;2023-07-09T08:39:33;5.93;;;5.43;;
7217;SDS011;3650;53.580;10.094;2023-07-09T08:42:03;5.00;;;4.50;;
7217;SDS011;3650;53.580;10.094;2023-07-09T08:44:43;5.07;;;4.60;;
7217;SDS011;3650;53.580;10.094;2023-07-09T08:47:25;5.07;;;4.57;;
7217;SDS011;3650;53.580;10.094;2023-07-09T08:49:57;6.33;;;4.83;;
7217;SDS011;3650;53.580;10.094;2023-07-09T08:52:28;5.90;;;4.20;;
7217;SDS011;3650;53.580;10.094;2023-07-09T08:55:01;4.57;;;4.17;;
7217;SDS011;3650;53.580;10.094;2023-07-09T08:57:34;8.30;;;4.47;;
7217;SDS011;3650;53.580;10.094;2023-07-09T09:00:07;7.80;;;5.60;;
7217;SDS011;3650;53.580;10.094;2023-07-09T09:02:46;6.40;;;4.53;;
7217;SDS011;3650;53.580;10.094;2023-07-09T09:05:18;5.20;;;4.80;;
7217;SDS011;3650;53.580;10.094;2023-07-09T09:07:47;4.50;;;4.30;;
7217;SDS011;3650;53.580;10.094;2023-07-09T09:10:21;4.47;;;4.17;;
7217;SDS011;3650;53.580;10.094;2023-07-09T09:13:00;5.30;;;4.90;;
7217;SDS011;3650;53.580;10.094;2023-07-09T09:15:31;4.20;;;4.00;;
7217;SDS011;3650;53.580;10.094;2023-07-09T09:18:07;4.50;;;4.30;;
7217;SDS011;3650;53.580;10.094;2023-07-09T09:20:52;6.53;;;5.40;;
7217;SDS011;3650;53.580;10.094;2023-07-09T09:23:24;12.27;;;4.27;;
7217;SDS011;3650;53.580;10.094;2023-07-09T09:25:56;5.10;;;4.60;;
7217;SDS011;3650;53.580;10.094;2023-07-09T09:28:27;7.20;;;4.67;;
7217;SDS011;3650;53.580;10.094;2023-07-09T09:30:54;4.93;;;4.70;;
7217;SDS011;3650;53.580;10.094;2023-07-09T09:33:23;7.90;;;4.23;;
7217;SDS011;3650;53.580;10.094;2023-07-09T09:35:50;4.13;;;3.93;;
7217;SDS011;3650;53.580;10.094;2023-07-09T09:38:29;4.60;;;4.20;;
7217;SDS011;3650;53.580;10.094;2023-07-09T09:40:59;5.00;;;4.80;;
7217;SDS011;3650;53.580;10.094;2023-07-09T09:43:31;4.93;;;4.53;;
7217;SDS011;3650;53.580;10.094;2023-07-09T09:45:59;4.90;;;4.50;;
7217;SDS011;3650;53.580;10.094;2023-07-09T09:48:33;5.00;;;4.23;;
7217;SDS011;3650;53.580;10.094;2023-07-09T09:51:03;4.93;;;4.53;;
7217;SDS011;3650;53.580;10.094;2023-07-09T09:53:34;4.87;;;4.47;;
7217;SDS011;3650;53.580;10.094;2023-07-09T09:56:06;4.60;;;4.20;;
7217;SDS011;3650;53.580;10.094;2023-07-09T09:58:40;7.00;;;4.70;;
7217;SDS011;3650;53.580;10.094;2023-07-09T10:01:12;4.97;;;4.67;;
7217;SDS011;3650;53.580;10.094;2023-07-09T10:03:43;4.43;;;4.13;;
7217;SDS011;3650;53.580;10.094;2023-07-09T10:06:16;5.00;;;4.60;;
7217;SDS011;3650;53.580;10.094;2023-07-09T10:08:47;4.90;;;4.60;;
7217;SDS011;3650;53.580;10.094;2023-07-09T10:11:24;5.50;;;5.03;;
7217;SDS011;3650;53.580;10.094;2023-07-09T10:13:58;4.50;;;4.23;;
7217;SDS011;3650;53.580;10.094;2023-07-09T10:16:32;6.50;;;4.60;;
7217;SDS011;3650;53.580;10.094;2023-07-09T10:19:12;4.53;;;4.30;;
7217;SDS011;3650;53.580;10.094;2023-07-09T10:21:46;4.90;;;4.50;;
7217;SDS011;3650;53.580;10.094;2023-07-09T10:24:25;16.37;;;5.60;;
7217;SDS011;3650;53.580;10.094;2023-07-09T10:27:03;5.73;;;5.43;;
7217;SDS011;3650;53.580;10.094;2023-07-09T10:29:40;5.00;;;4.70;;
7217;SDS011;3650;53.580;10.094;2023-07-09T10:32:20;5.60;;;5.20;;
7217;SDS011;3650;53.580;10.094;2023-07-09T10:34:59;4.30;;;4.10;;
7217;SDS011;3650;53.580;10.094;2023-07-09T10:37:46;7.10;;;5.03;;
7217;SDS011;3650;53.580;10.094;2023-07-09T10:40:24;7.13;;;5.10;;
7217;SDS011;3650;53.580;10.094;2023-07-09T10:42:57;4.77;;;4.57;;
7217;SDS011;3650;53.580;10.094;2023-07-09T10:45:28;5.57;;;5.13;;
7217;SDS011;3650;53.580;10.094;2023-07-09T10:47:58;5.43;;;5.03;;
7217;SDS011;3650;53.580;10.094;2023-07-09T10:50:31;5.40;;;4.90;;
7217;SDS011;3650;53.580;10.094;2023-07-09T10:53:02;5.30;;;4.40;;
7217;SDS011;3650;53.580;10.094;2023-07-09T10:55:37;5.33;;;5.00;;
7217;SDS011;3650;53.580;10.094;2023-07-09T10:58:14;5.77;;;5.37;;
7217;SDS011;3650;53.580;10.094;2023-07-09T11:01:01;12.47;;;5.30;;
7217;SDS011;3650;53.580;10.094;2023-07-09T11:03:38;5.70;;;5.30;;
7217;SDS011;3650;53.580;10.094;2023-07-09T11:06:16;5.37;;;4.87;;
7217;SDS011;3650;53.580;10.094;2023-07-09T11:08:49;5.90;;;5.50;;
7217;SDS011;3650;53.580;10.094;2023-07-09T11:11:21;6.67;;;6.17;;
7217;SDS011;3650;53.580;10.094;2023-07-09T11:13:59;9.17;;;8.30;;
7217;SDS011;3650;53.580;10.094;2023-07-09T11:16:36;15.93;;;10.77;;
7217;SDS011;3650;53.580;10.094;2023-07-09T11:19:05;13.03;;;8.70;;
7217;SDS011;3650;53.580;10.094;2023-07-09T11:21:44;11.50;;;9.00;;
7217;SDS011;3650;53.580;10.094;2023-07-09T11:24:33;6.50;;;5.70;;
7217;SDS011;3650;53.580;10.094;2023-07-09T11:27:02;11.23;;;6.13;;
7217;SDS011;3650;53.580;10.094;2023-07-09T11:29:45;6.50;;;5.93;;
7217;SDS011;3650;53.580;10.094;2023-07-09T11:32:17;6.50;;;5.90;;
7217;SDS011;3650;53.580;10.094;2023-07-09T11:34:45;6.40;;;6.00;;
7217;SDS011;3650;53.580;10.094;2023-07-09T11:37:15;5.67;;;5.17;;
7217;SDS011;3650;53.580;10.094;2023-07-09T11:39:43;6.17;;;5.77;;
7217;SDS011;3650;53.580;10.094;2023-07-09T11:42:23;5.97;;;5.60;;
7217;SDS011;3650;53.580;10.094;2023-07-09T11:44:51;8.70;;;5.83;;
7217;SDS011;3650;53.580;10.094;2023-07-09T11:47:24;5.80;;;5.40;;
7217;SDS011;3650;53.580;10.094;2023-07-09T11:49:56;6.50;;;5.67;;
7217;SDS011;3650;53.580;10.094;2023-07-09T11:52:27;4.97;;;4.67;;
7217;SDS011;3650;53.580;10.094;2023-07-09T11:55:01;5.87;;;5.57;;
7217;SDS011;3650;53.580;10.094;2023-07-09T11:57:29;5.93;;;5.43;;
7217;SDS011;3650;53.580;10.094;2023-07-09T11:59:58;5.67;;;5.37;;
7217;SDS011;3650;53.580;10.094;2023-07-09T12:02:26;6.03;;;5.63;;
7217;SDS011;3650;53.580;10.094;2023-07-09T12:04:59;8.50;;;5.17;;
7217;SDS011;3650;53.580;10.094;2023-07-09T12:07:30;5.60;;;5.20;;
7217;SDS011;3650;53.580;10.094;2023-07-09T12:09:58;5.53;;;5.03;;
7217;SDS011;3650;53.580;10.094;2023-07-09T12:12:28;5.93;;;5.57;;
7217;SDS011;3650;53.580;10.094;2023-07-09T12:14:56;8.10;;;5.73;;
7217;SDS011;3650;53.580;10.094;2023-07-09T12:17:26;6.17;;;5.63;;
7217;SDS011;3650;53.580;10.094;2023-07-09T12:19:55;6.47;;;5.80;;
7217;SDS011;3650;53.580;10.094;2023-07-09T12:22:22;5.97;;;5.47;;
7217;SDS011;3650;53.580;10.094;2023-07-09T12:24:50;5.97;;;5.50;;
7217;SDS011;3650;53.580;10.094;2023-07-09T12:27:20;5.63;;;5.33;;
7217;SDS011;3650;53.580;10.094;2023-07-09T12:29:50;5.43;;;5.07;;
7217;SDS011;3650;53.580;10.094;2023-07-09T12:32:20;6.50;;;5.90;;
7217;SDS011;3650;53.580;10.094;2023-07-09T12:34:49;6.33;;;5.87;;
7217;SDS011;3650;53.580;10.094;2023-07-09T12:37:17;5.60;;;5.20;;
7217;SDS011;3650;53.580;10.094;2023-07-09T12:39:51;6.13;;;5.53;;
7217;SDS011;3650;53.580;10.094;2023-07-09T12:42:19;6.43;;;6.00;;
7217;SDS011;3650;53.580;10.094;2023-07-09T12:44:51;8.60;;;5.80;;
7217;SDS011;3650;53.580;10.094;2023-07-09T12:47:18;6.70;;;5.43;;
7217;SDS011;3650;53.580;10.094;2023-07-09T12:49:49;5.43;;;5.10;;
7217;SDS011;3650;53.580;10.094;2023-07-09T12:52:17;6.03;;;5.27;;
7217;SDS011;3650;53.580;10.094;2023-07-09T12:54:53;5.90;;;5.57;;
7217;SDS011;3650;53.580;10.094;2023-07-09T12:57:22;5.53;;;5.23;;
7217;SDS011;3650;53.580;10.094;2023-07-09T12:59:50;6.53;;;5.93;;
7217;SDS011;3650;53.580;10.094;2023-07-09T13:02:18;6.57;;;6.07;;
7217;SDS011;3650;53.580;10.094;2023-07-09T13:04:46;19.13;;;5.33;;
7217;SDS011;3650;53.580;10.094;2023-07-09T13:07:24;6.30;;;5.37;;
7217;SDS011;3650;53.580;10.094;2023-07-09T13:09:54;6.13;;;5.63;;
7217;SDS011;3650;53.580;10.094;2023-07-09T13:12:28;5.77;;;5.27;;
7217;SDS011;3650;53.580;10.094;2023-07-09T13:14:56;5.97;;;5.57;;
7217;SDS011;3650;53.580;10.094;2023-07-09T13:17:23;6.17;;;5.77;;
7217;SDS011;3650;53.580;10.094;2023-07-09T13:19:55;5.70;;;5.23;;
7217;SDS011;3650;53.580;10.094;2023-07-09T13:22:22;6.20;;;5.80;;
7217;SDS011;3650;53.580;10.094;2023-07-09T13:24:50;5.20;;;4.80;;
7217;SDS011;3650;53.580;10.094;2023-07-09T13:27:18;6.17;;;5.73;;
7217;SDS011;3650;53.580;10.094;2023-07-09T13:29:45;14.40;;;6.17;;
7217;SDS011;3650;53.580;10.094;2023-07-09T13:32:13;5.40;;;5.00;;
7217;SDS011;3650;53.580;10.094;2023-07-09T13:34:42;7.77;;;5.77;;
7217;SDS011;3650;53.580;10.094;2023-07-09T13:37:11;5.80;;;5.50;;
7217;SDS011;3650;53.580;10.094;2023-07-09T13:39:40;5.50;;;5.07;;
7217;SDS011;3650;53.580;10.094;2023-07-09T13:42:09;5.77;;;5.40;;
7217;SDS011;3650;53.580;10.094;2023-07-09T13:44:41;6.33;;;5.73;;
7217;SDS011;3650;53.580;10.094;2023-07-09T13:47:12;7.00;;;5.50;;
7217;SDS011;3650;53.580;10.094;2023-07-09T13:49:41;9.00;;;5.70;;
7217;SDS011;3650;53.580;10.094;2023-07-09T13:52:09;11.00;;;6.00;;
7217;SDS011;3650;53.580;10.094;2023-07-09T13:54:41;5.73;;;5.20;;
7217;SDS011;3650;53.580;10.094;2023-07-09T13:57:17;5.40;;;5.10;;
7217;SDS011;3650;53.580;10.094;2023-07-09T13:59:48;6.80;;;6.23;;
7217;SDS011;3650;53.580;10.094;2023-07-09T14:02:20;6.80;;;6.23;;
7217;SDS011;3650;53.580;10.094;2023-07-09T14:04:49;6.10;;;5.73;;
7217;SDS011;3650;53.580;10.094;2023-07-09T14:07:22;6.30;;;5.77;;
7217;SDS011;3650;53.580;10.094;2023-07-09T14:09:59;9.63;;;5.60;;
7217;SDS011;3650;53.580;10.094;2023-07-09T14:12:26;5.83;;;5.43;;
7217;SDS011;3650;53.580;10.094;2023-07-09T14:14:56;6.93;;;6.30;;
7217;SDS011;3650;53.580;10.094;2023-07-09T14:17:25;6.37;;;5.77;;
7217;SDS011;3650;53.580;10.094;2023-07-09T14:19:52;8.27;;;5.43;;
7217;SDS011;3650;53.580;10.094;2023-07-09T14:22:21;7.30;;;5.73;;
7217;SDS011;3650;53.580;10.094;2023-07-09T14:24:52;5.30;;;5.00;;
7217;SDS011;3650;53.580;10.094;2023-07-09T14:27:19;5.33;;;4.97;;
7217;SDS011;3650;53.580;10.094;2023-07-09T14:29:46;7.27;;;6.20;;
7217;SDS011;3650;53.580;10.094;2023-07-09T14:35:11;7.73;;;6.17;;
7217;SDS011;3650;53.580;10.094;2023-07-09T14:37:40;6.03;;;5.60;;
7217;SDS011;3650;53.580;10.094;2023-07-09T14:40:07;6.07;;;5.43;;
7217;SDS011;3650;53.580;10.094;2023-07-09T14:42:35;7.13;;;6.00;;
7217;SDS011;3650;53.580;10.094;2023-07-09T14:45:03;5.53;;;5.17;;
7217;SDS011;3650;53.580;10.094;2023-07-09T14:47:31;7.23;;;6.30;;
7217;SDS011;3650;53.580;10.094;2023-07-09T14:49:59;6.43;;;6.03;;
7217;SDS011;3650;53.580;10.094;2023-07-09T14:52:28;12.33;;;5.80;;
7217;SDS011;3650;53.580;10.094;2023-07-09T14:54:57;6.03;;;5.70;;
7217;SDS011;3650;53.580;10.094;2023-07-09T14:57:25;7.40;;;5.63;;
7217;SDS011;3650;53.580;10.094;2023-07-09T14:59:55;6.60;;;6.20;;
7217;SDS011;3650;53.580;10.094;2023-07-09T15:02:27;6.43;;;5.93;;
7217;SDS011;3650;53.580;10.094;2023-07-09T15:05:01;6.20;;;5.70;;
7217;SDS011;3650;53.580;10.094;2023-07-09T15:07:29;8.83;;;5.97;;
7217;SDS011;3650;53.580;10.094;2023-07-09T15:09:57;5.43;;;5.03;;
7217;SDS011;3650;53.580;10.094;2023-07-09T15:12:26;5.77;;;5.30;;
7217;SDS011;3650;53.580;10.094;2023-07-09T15:14:58;6.27;;;5.63;;
7217;SDS011;3650;53.580;10.094;2023-07-09T15:17:32;6.63;;;5.93;;